Wolf 59 — CGBP — position and weather

sailwx.info

Track history (hours):
 
Tides and Currents Weather Stations Pressure Air Temp Water Temp Dewpoint Dewpoint Depression Visibility Wind Speed Wind Dir Waves Ship Positions

Wolf 59

Last reported at 2015-Aug-14 16:31 UTC. Time now 2015-Sep-05 10:13 UTC.
Position N 48°24' W 123°25'.
Warning: this ship's position is 21 days out of date.

Length 33 m; draft 2.6 m.

Type: Military. MMSI: 316011515.

Date/timePositionNaut miles runAvg speedWind from/ knotsBaromVisibWave heightAir tempDewpointWater temp
2015-Aug-14 16:31N 48°24' W 123°25'1313.2
2015-Aug-14 15:31N 48°35' W 123°14'1814.4
2015-Aug-14 14:16N 48°50' W 123°27'2 2.7
2015-Aug-14 13:29N 48°51' W 123°30'0 0.0
2015-Aug-14 10:29N 48°51' W 123°30'0 0.0
2015-Aug-14 07:11N 48°51' W 123°30'0 0.0
2015-Aug-14 05:17N 48°51' W 123°30'0 0.0
2015-Aug-14 04:29N 48°51' W 123°30'0 0.0
2015-Aug-14 03:29N 48°51' W 123°30'0 0.0
2015-Aug-14 02:29N 48°51' W 123°30'3 3.6
2015-Aug-14 01:33N 48°50' W 123°25'1010.1
2015-Aug-14 00:33N 48°60' W 123°21'1818.1
2015-Aug-13 23:34N 49°18' W 123°21'9 8.8
2015-Aug-13 22:33N 49°18' W 123°07'0 0.0
2015-Aug-13 21:34N 49°18' W 123°07'0 0.5
2015-Aug-13 20:34N 49°18' W 123°07'1212.0
2015-Aug-13 19:33N 49°18' W 123°25'1616.0
2015-Aug-13 18:34N 49°20' W 123°49'1312.9
2015-Aug-13 17:33N 49°24' W 124°09'1717.4
2015-Aug-13 16:33N 49°28' W 124°35'1211.8
2015-Aug-13 15:33N 49°33' W 124°51'7 3.2
2015-Aug-13 13:18N 49°40' W 124°55'0 0.0
2015-Aug-13 10:33N 49°40' W 124°55'0 0.0
2015-Aug-13 09:33N 49°40' W 124°55'0 0.0
2015-Aug-13 05:32N 49°40' W 124°55'0 0.0
2015-Aug-13 04:33N 49°40' W 124°55'0 0.0
2015-Aug-13 03:32N 49°40' W 124°55'0 0.0
2015-Aug-12 23:06N 49°40' W 124°55'2 3.9
2015-Aug-12 22:33N 49°39' W 124°52'1312.8
2015-Aug-12 21:33N 49°51' W 124°43'4 4.3
2015-Aug-12 20:33N 49°47' W 124°40'1212.2
2015-Aug-12 19:34N 49°36' W 124°33'10 9.5
2015-Aug-12 18:32N 49°29' W 124°22'1212.1
2015-Aug-12 17:32N 49°28' W 124°40'6 6.2
2015-Aug-12 16:33N 49°31' W 124°48'8 7.7
2015-Aug-12 15:32N 49°38' W 124°54'2 2.2
2015-Aug-12 14:33N 49°40' W 124°55'0 0.0
2015-Aug-12 13:33N 49°40' W 124°55'0 0.0
2015-Aug-12 12:33N 49°40' W 124°55'0 0.0
2015-Aug-12 11:33N 49°40' W 124°55'0 0.0
2015-Aug-12 10:33N 49°40' W 124°55'0 0.0
2015-Aug-12 09:32N 49°40' W 124°55'0 0.0
2015-Aug-12 08:33N 49°40' W 124°55'0 0.0
2015-Aug-12 00:34N 49°40' W 124°55'2 2.3
2015-Aug-11 23:33N 49°40' W 124°51'3 2.6
2015-Aug-11 22:34N 49°38' W 124°48'5 5.0
2015-Aug-11 21:33N 49°39' W 124°56'8 8.2
2015-Aug-11 20:33N 49°47' W 124°51'1716.9
2015-Aug-11 19:32N 49°58' W 125°11'1414.4
2015-Aug-11 18:33N 50°11' W 125°22'17 1.0
2015-Aug-11 01:07N 50°11' W 124°55'10 2.6
2015-Aug-10 21:11N 50°01' W 124°51'711.6
2015-Aug-10 20:33N 49°55' W 124°43'1313.0
2015-Aug-10 19:33N 49°43' W 124°39'1413.7
2015-Aug-10 18:33N 49°29' W 124°34'17 4.1
2015-Aug-10 14:26N 49°40' W 124°55'0 0.0
2015-Aug-10 09:32N 49°40' W 124°55'0 0.0
2015-Aug-10 03:05N 49°40' W 124°55'0 0.0
2015-Aug-10 02:29N 49°40' W 124°55'0 0.0
2015-Aug-10 00:29N 49°40' W 124°55'0 0.0
2015-Aug-09 23:32N 49°40' W 124°55'0 0.0
2015-Aug-09 22:26N 49°40' W 124°55'0 0.0
2015-Aug-09 21:26N 49°40' W 124°55'0 0.0
2015-Aug-09 20:20N 49°40' W 124°55'0 0.0
2015-Aug-09 13:29N 49°40' W 124°55'0 0.0
2015-Aug-09 10:05N 49°40' W 124°55'0 0.0
2015-Aug-09 09:11N 49°40' W 124°55'0 0.0
2015-Aug-09 08:11N 49°40' W 124°55'0 0.0
2015-Aug-09 07:29N 49°40' W 124°55'0 0.0
2015-Aug-09 06:29N 49°40' W 124°55'0 0.0
2015-Aug-09 02:23N 49°40' W 124°55'0 0.1
2015-Aug-08 23:33N 49°40' W 124°56'9 8.5
2015-Aug-08 22:33N 49°32' W 124°50'1010.2
2015-Aug-08 21:33N 49°28' W 124°36'1514.0
2015-Aug-08 20:29N 49°24' W 124°14'1112.1
2015-Aug-08 19:32N 49°19' W 123°58'1211.8
2015-Aug-08 18:32N 49°13' W 123°43'1312.7
2015-Aug-08 17:29N 49°03' W 123°29'1112.0
2015-Aug-08 16:32N 48°54' W 123°18'8 6.5
2015-Aug-08 15:17N 48°51' W 123°30'0 0.1
2015-Aug-08 14:25N 48°51' W 123°30'0 0.0
2015-Aug-08 13:28N 48°51' W 123°30'0 0.0
2015-Aug-08 12:31N 48°51' W 123°30'0 0.0
2015-Aug-08 11:29N 48°51' W 123°30'0 0.0
2015-Aug-08 10:33N 48°51' W 123°30'0 0.0
2015-Aug-08 09:33N 48°51' W 123°30'0 0.0
2015-Aug-08 08:33N 48°51' W 123°30'0 0.0
2015-Aug-08 07:33N 48°51' W 123°30'0 0.0
2015-Aug-08 06:33N 48°51' W 123°30'0 0.0
2015-Aug-08 04:33N 48°51' W 123°30'0 0.0
2015-Aug-08 03:12N 48°51' W 123°30'0 0.0
2015-Aug-08 02:24N 48°51' W 123°30'0 0.0
2015-Aug-08 00:27N 48°51' W 123°30'0 0.4
2015-Aug-07 23:32N 48°51' W 123°29'3 3.5
2015-Aug-07 22:33N 48°55' W 123°29'1010.0
2015-Aug-07 21:33N 49°02' W 123°39'3 2.6
2015-Aug-07 20:33N 49°02' W 123°43'9 9.1
2015-Aug-07 19:33N 48°53' W 123°37'7 7.5
2015-Aug-07 18:33N 48°46' W 123°34'8 8.2
2015-Aug-07 17:32N 48°38' W 123°30'6 5.7
2015-Aug-07 16:33N 48°43' W 123°26'8 7.7
2015-Aug-07 15:30N 48°45' W 123°14'0 0.2
2015-Aug-07 14:33N 48°45' W 123°14'0 0.0
2015-Aug-07 13:30N 48°45' W 123°14'0 0.0
2015-Aug-07 12:33N 48°45' W 123°14'0 0.0
2015-Aug-07 11:33N 48°45' W 123°14'0 0.0
2015-Aug-07 10:32N 48°45' W 123°14'0 0.0
2015-Aug-07 09:32N 48°45' W 123°14'0 0.0
2015-Aug-07 08:32N 48°45' W 123°14'0 0.0
2015-Aug-07 07:29N 48°45' W 123°14'0 0.0
2015-Aug-07 06:33N 48°45' W 123°14'0 0.0
2015-Aug-07 05:33N 48°45' W 123°14'0 0.0
2015-Aug-07 04:33N 48°45' W 123°14'0 0.0
2015-Aug-07 03:32N 48°45' W 123°14'0 0.0
2015-Aug-07 02:29N 48°45' W 123°14'0 0.0
2015-Aug-07 01:33N 48°45' W 123°14'1 1.2
2015-Aug-07 00:33N 48°44' W 123°15'1111.0
2015-Aug-06 23:33N 48°53' W 123°26'6 6.1
2015-Aug-06 22:32N 48°57' W 123°33'1211.9
2015-Aug-06 21:34N 49°08' W 123°36'1313.3
2015-Aug-06 20:33N 49°15' W 123°53'1312.8
2015-Aug-06 19:33N 49°21' W 124°11'1312.8
2015-Aug-06 18:32N 49°25' W 124°30'4 4.4
2015-Aug-06 17:33N 49°27' W 124°36'10 9.8
2015-Aug-06 16:33N 49°32' W 124°49'9 9.0
2015-Aug-06 15:33N 49°40' W 124°56'1 0.6
2015-Aug-06 14:33N 49°40' W 124°55'0 0.0
2015-Aug-06 12:33N 49°40' W 124°55'0 0.0
2015-Aug-06 11:33N 49°40' W 124°55'0 0.0
2015-Aug-06 10:33N 49°40' W 124°55'0 0.0
2015-Aug-06 09:32N 49°40' W 124°55'0 0.0
2015-Aug-06 00:33N 49°40' W 124°55'5 4.9
2015-Aug-05 23:33N 49°35' W 124°52'1 0.6
2015-Aug-05 22:33N 49°35' W 124°52'1 0.8
2015-Aug-05 21:33N 49°36' W 124°52'1 1.0
2015-Aug-05 20:32N 49°36' W 124°51'0 0.0
2015-Aug-05 19:29N 49°36' W 124°51'1 1.2
2015-Aug-05 18:33N 49°36' W 124°52'1 0.9
2015-Aug-05 17:33N 49°37' W 124°52'3 2.9
2015-Aug-05 16:24N 49°40' W 124°55'0 0.0
2015-Aug-05 15:14N 49°40' W 124°55'0 0.0
2015-Aug-05 13:26N 49°40' W 124°55'0 0.0
2015-Aug-05 12:33N 49°40' W 124°55'0 0.0
2015-Aug-05 11:32N 49°40' W 124°55'0 0.0
2015-Aug-05 10:33N 49°40' W 124°55'0 0.0
2015-Aug-05 09:32N 49°40' W 124°55'0 0.0
2015-Aug-05 02:16N 49°40' W 124°55'4 6.1
2015-Aug-05 01:33N 49°39' W 124°48'1716.8
2015-Aug-05 00:33N 49°29' W 124°28'1616.3
2015-Aug-04 23:33N 49°19' W 124°08'3 3.3
2015-Aug-04 22:33N 49°16' W 124°09'0 0.0
2015-Aug-04 21:33N 49°16' W 124°09'0 0.1
2015-Aug-04 20:33N 49°16' W 124°09'0 0.1
2015-Aug-04 19:33N 49°16' W 124°09'8 8.5
2015-Aug-04 18:34N 49°15' W 123°56'9 8.9
2015-Aug-04 17:33N 49°15' W 123°42'9 9.0
2015-Aug-04 16:34N 49°17' W 123°29'  
Track history (hours):
 
Tides and Currents Weather Stations Pressure Air Temp Water Temp Dewpoint Dewpoint Depression Visibility Wind Speed Wind Dir Waves Ship Positions

Wolf 59

Last reported at 2015-Aug-14 16:31 UTC. Time now 2015-Sep-05 10:14 UTC.
Position N 48°24' W 123°25'.
Warning: this ship's position is 21 days out of date.

Length 33 m; draft 2.6 m.

Type: Military. MMSI: 316011515.

Date/timePositionNaut miles runAvg speedWind from/ knotsBaromVisibWave heightAir tempDewpointWater temp
2015-Aug-14 16:31N 48°24' W 123°25'1313.2
2015-Aug-14 15:31N 48°35' W 123°14'1814.4
2015-Aug-14 14:16N 48°50' W 123°27'2 2.7
2015-Aug-14 13:29N 48°51' W 123°30'0 0.0
2015-Aug-14 10:29N 48°51' W 123°30'0 0.0
2015-Aug-14 07:11N 48°51' W 123°30'0 0.0
2015-Aug-14 05:17N 48°51' W 123°30'0 0.0
2015-Aug-14 04:29N 48°51' W 123°30'0 0.0
2015-Aug-14 03:29N 48°51' W 123°30'0 0.0
2015-Aug-14 02:29N 48°51' W 123°30'3 3.6
2015-Aug-14 01:33N 48°50' W 123°25'1010.1
2015-Aug-14 00:33N 48°60' W 123°21'1818.1
2015-Aug-13 23:34N 49°18' W 123°21'9 8.8
2015-Aug-13 22:33N 49°18' W 123°07'0 0.0
2015-Aug-13 21:34N 49°18' W 123°07'0 0.5
2015-Aug-13 20:34N 49°18' W 123°07'1212.0
2015-Aug-13 19:33N 49°18' W 123°25'1616.0
2015-Aug-13 18:34N 49°20' W 123°49'1312.9
2015-Aug-13 17:33N 49°24' W 124°09'1717.4
2015-Aug-13 16:33N 49°28' W 124°35'1211.8
2015-Aug-13 15:33N 49°33' W 124°51'7 3.2
2015-Aug-13 13:18N 49°40' W 124°55'0 0.0
2015-Aug-13 10:33N 49°40' W 124°55'0 0.0
2015-Aug-13 09:33N 49°40' W 124°55'0 0.0
2015-Aug-13 05:32N 49°40' W 124°55'0 0.0
2015-Aug-13 04:33N 49°40' W 124°55'0 0.0
2015-Aug-13 03:32N 49°40' W 124°55'0 0.0
2015-Aug-12 23:06N 49°40' W 124°55'2 3.9
2015-Aug-12 22:33N 49°39' W 124°52'1312.8
2015-Aug-12 21:33N 49°51' W 124°43'4 4.3
2015-Aug-12 20:33N 49°47' W 124°40'1212.2
2015-Aug-12 19:34N 49°36' W 124°33'10 9.5
2015-Aug-12 18:32N 49°29' W 124°22'1212.1
2015-Aug-12 17:32N 49°28' W 124°40'6 6.2
2015-Aug-12 16:33N 49°31' W 124°48'8 7.7
2015-Aug-12 15:32N 49°38' W 124°54'2 2.2
2015-Aug-12 14:33N 49°40' W 124°55'0 0.0
2015-Aug-12 13:33N 49°40' W 124°55'0 0.0
2015-Aug-12 12:33N 49°40' W 124°55'0 0.0
2015-Aug-12 11:33N 49°40' W 124°55'0 0.0
2015-Aug-12 10:33N 49°40' W 124°55'0 0.0
2015-Aug-12 09:32N 49°40' W 124°55'0 0.0
2015-Aug-12 08:33N 49°40' W 124°55'0 0.0
2015-Aug-12 00:34N 49°40' W 124°55'2 2.3
2015-Aug-11 23:33N 49°40' W 124°51'3 2.6
2015-Aug-11 22:34N 49°38' W 124°48'5 5.0
2015-Aug-11 21:33N 49°39' W 124°56'8 8.2
2015-Aug-11 20:33N 49°47' W 124°51'1716.9
2015-Aug-11 19:32N 49°58' W 125°11'1414.4
2015-Aug-11 18:33N 50°11' W 125°22'17 1.0
2015-Aug-11 01:07N 50°11' W 124°55'10 2.6
2015-Aug-10 21:11N 50°01' W 124°51'711.6
2015-Aug-10 20:33N 49°55' W 124°43'1313.0
2015-Aug-10 19:33N 49°43' W 124°39'1413.7
2015-Aug-10 18:33N 49°29' W 124°34'17 4.1
2015-Aug-10 14:26N 49°40' W 124°55'0 0.0
2015-Aug-10 09:32N 49°40' W 124°55'0 0.0
2015-Aug-10 03:05N 49°40' W 124°55'0 0.0
2015-Aug-10 02:29N 49°40' W 124°55'0 0.0
2015-Aug-10 00:29N 49°40' W 124°55'0 0.0
2015-Aug-09 23:32N 49°40' W 124°55'0 0.0
2015-Aug-09 22:26N 49°40' W 124°55'0 0.0
2015-Aug-09 21:26N 49°40' W 124°55'0 0.0
2015-Aug-09 20:20N 49°40' W 124°55'0 0.0
2015-Aug-09 13:29N 49°40' W 124°55'0 0.0
2015-Aug-09 10:05N 49°40' W 124°55'0 0.0
2015-Aug-09 09:11N 49°40' W 124°55'0 0.0
2015-Aug-09 08:11N 49°40' W 124°55'0 0.0
2015-Aug-09 07:29N 49°40' W 124°55'0 0.0
2015-Aug-09 06:29N 49°40' W 124°55'0 0.0
2015-Aug-09 02:23N 49°40' W 124°55'0 0.1
2015-Aug-08 23:33N 49°40' W 124°56'9 8.5
2015-Aug-08 22:33N 49°32' W 124°50'1010.2
2015-Aug-08 21:33N 49°28' W 124°36'1514.0
2015-Aug-08 20:29N 49°24' W 124°14'1112.1
2015-Aug-08 19:32N 49°19' W 123°58'1211.8
2015-Aug-08 18:32N 49°13' W 123°43'1312.7
2015-Aug-08 17:29N 49°03' W 123°29'1112.0
2015-Aug-08 16:32N 48°54' W 123°18'8 6.5
2015-Aug-08 15:17N 48°51' W 123°30'0 0.1
2015-Aug-08 14:25N 48°51' W 123°30'0 0.0
2015-Aug-08 13:28N 48°51' W 123°30'0 0.0
2015-Aug-08 12:31N 48°51' W 123°30'0 0.0
2015-Aug-08 11:29N 48°51' W 123°30'0 0.0
2015-Aug-08 10:33N 48°51' W 123°30'0 0.0
2015-Aug-08 09:33N 48°51' W 123°30'0 0.0
2015-Aug-08 08:33N 48°51' W 123°30'0 0.0
2015-Aug-08 07:33N 48°51' W 123°30'0 0.0
2015-Aug-08 06:33N 48°51' W 123°30'0 0.0
2015-Aug-08 04:33N 48°51' W 123°30'0 0.0
2015-Aug-08 03:12N 48°51' W 123°30'0 0.0
2015-Aug-08 02:24N 48°51' W 123°30'0 0.0
2015-Aug-08 00:27N 48°51' W 123°30'0 0.4
2015-Aug-07 23:32N 48°51' W 123°29'3 3.5
2015-Aug-07 22:33N 48°55' W 123°29'1010.0
2015-Aug-07 21:33N 49°02' W 123°39'3 2.6
2015-Aug-07 20:33N 49°02' W 123°43'9 9.1
2015-Aug-07 19:33N 48°53' W 123°37'7 7.5
2015-Aug-07 18:33N 48°46' W 123°34'8 8.2
2015-Aug-07 17:32N 48°38' W 123°30'6 5.7
2015-Aug-07 16:33N 48°43' W 123°26'8 7.7
2015-Aug-07 15:30N 48°45' W 123°14'0 0.2
2015-Aug-07 14:33N 48°45' W 123°14'0 0.0
2015-Aug-07 13:30N 48°45' W 123°14'0 0.0
2015-Aug-07 12:33N 48°45' W 123°14'0 0.0
2015-Aug-07 11:33N 48°45' W 123°14'0 0.0
2015-Aug-07 10:32N 48°45' W 123°14'0 0.0
2015-Aug-07 09:32N 48°45' W 123°14'0 0.0
2015-Aug-07 08:32N 48°45' W 123°14'0 0.0
2015-Aug-07 07:29N 48°45' W 123°14'0 0.0
2015-Aug-07 06:33N 48°45' W 123°14'0 0.0
2015-Aug-07 05:33N 48°45' W 123°14'0 0.0
2015-Aug-07 04:33N 48°45' W 123°14'0 0.0
2015-Aug-07 03:32N 48°45' W 123°14'0 0.0
2015-Aug-07 02:29N 48°45' W 123°14'0 0.0
2015-Aug-07 01:33N 48°45' W 123°14'1 1.2
2015-Aug-07 00:33N 48°44' W 123°15'1111.0
2015-Aug-06 23:33N 48°53' W 123°26'6 6.1
2015-Aug-06 22:32N 48°57' W 123°33'1211.9
2015-Aug-06 21:34N 49°08' W 123°36'1313.3
2015-Aug-06 20:33N 49°15' W 123°53'1312.8
2015-Aug-06 19:33N 49°21' W 124°11'1312.8
2015-Aug-06 18:32N 49°25' W 124°30'4 4.4
2015-Aug-06 17:33N 49°27' W 124°36'10 9.8
2015-Aug-06 16:33N 49°32' W 124°49'9 9.0
2015-Aug-06 15:33N 49°40' W 124°56'1 0.6
2015-Aug-06 14:33N 49°40' W 124°55'0 0.0
2015-Aug-06 12:33N 49°40' W 124°55'0 0.0
2015-Aug-06 11:33N 49°40' W 124°55'0 0.0
2015-Aug-06 10:33N 49°40' W 124°55'0 0.0
2015-Aug-06 09:32N 49°40' W 124°55'0 0.0
2015-Aug-06 00:33N 49°40' W 124°55'5 4.9
2015-Aug-05 23:33N 49°35' W 124°52'1 0.6
2015-Aug-05 22:33N 49°35' W 124°52'1 0.8
2015-Aug-05 21:33N 49°36' W 124°52'1 1.0
2015-Aug-05 20:32N 49°36' W 124°51'0 0.0
2015-Aug-05 19:29N 49°36' W 124°51'1 1.2
2015-Aug-05 18:33N 49°36' W 124°52'1 0.9
2015-Aug-05 17:33N 49°37' W 124°52'3 2.9
2015-Aug-05 16:24N 49°40' W 124°55'0 0.0
2015-Aug-05 15:14N 49°40' W 124°55'0 0.0
2015-Aug-05 13:26N 49°40' W 124°55'0 0.0
2015-Aug-05 12:33N 49°40' W 124°55'0 0.0
2015-Aug-05 11:32N 49°40' W 124°55'0 0.0
2015-Aug-05 10:33N 49°40' W 124°55'0 0.0
2015-Aug-05 09:32N 49°40' W 124°55'0 0.0
2015-Aug-05 02:16N 49°40' W 124°55'4 6.1
2015-Aug-05 01:33N 49°39' W 124°48'1716.8
2015-Aug-05 00:33N 49°29' W 124°28'1616.3
2015-Aug-04 23:33N 49°19' W 124°08'3 3.3
2015-Aug-04 22:33N 49°16' W 124°09'0 0.0
2015-Aug-04 21:33N 49°16' W 124°09'0 0.1
2015-Aug-04 20:33N 49°16' W 124°09'0 0.1
2015-Aug-04 19:33N 49°16' W 124°09'8 8.5
2015-Aug-04 18:34N 49°15' W 123°56'9 8.9
2015-Aug-04 17:33N 49°15' W 123°42'9 9.0
2015-Aug-04 16:34N 49°17' W 123°29'  

Dump ship's entire track history